createdAt,value
2019-01-19T00:01:11.184Z,94.20
2019-01-19T00:03:45.345Z,94.10
2019-01-19T00:06:25.924Z,94.10
2019-01-19T00:08:54.616Z,93.90
2019-01-19T00:11:45.788Z,93.80
2019-01-19T00:14:17.600Z,93.80
2019-01-19T00:16:54.624Z,93.60
2019-01-19T00:19:54.205Z,93.90
2019-01-19T00:22:31.533Z,93.40
2019-01-19T00:25:09.031Z,93.60
2019-01-19T00:27:59.412Z,93.50
2019-01-19T00:30:33.323Z,93.50
2019-01-19T00:33:07.884Z,93.50
2019-01-19T00:35:45.197Z,93.50
2019-01-19T00:38:44.385Z,93.50
2019-01-19T00:41:35.331Z,93.50
2019-01-19T00:44:15.600Z,93.60
2019-01-19T00:46:52.188Z,93.10
2019-01-19T00:49:20.480Z,93.10
2019-01-19T00:52:08.356Z,93.20
2019-01-19T00:54:40.221Z,93.30
2019-01-19T00:57:14.633Z,93.40
2019-01-19T00:59:43.400Z,93.30
2019-01-19T01:02:23.795Z,93.40
2019-01-19T01:05:25.264Z,93.50
2019-01-19T01:08:10.526Z,93.40
2019-01-19T01:10:42.012Z,93.40
2019-01-19T01:13:26.507Z,93.50
2019-01-19T01:16:00.608Z,93.50
2019-01-19T01:18:54.427Z,93.50
2019-01-19T01:21:42.327Z,93.80
2019-01-19T01:24:28.952Z,93.60
2019-01-19T01:27:18.140Z,93.70
2019-01-19T01:30:23.084Z,93.80
2019-01-19T01:33:12.470Z,94.00
2019-01-19T01:36:03.279Z,93.90
2019-01-19T01:38:40.253Z,93.80
2019-01-19T01:41:28.037Z,94.00
2019-01-19T01:44:08.344Z,94.10
2019-01-19T01:47:07.172Z,94.10
2019-01-19T01:49:38.660Z,94.30
2019-01-19T01:52:22.055Z,94.40
2019-01-19T01:54:59.624Z,94.20
2019-01-19T01:57:27.875Z,94.40
2019-01-19T02:00:17.080Z,94.60
2019-01-19T02:02:51.349Z,94.70
2019-01-19T02:05:31.778Z,95.00
2019-01-19T02:08:12.895Z,95.00
2019-01-19T02:10:58.998Z,95.10
2019-01-19T02:13:52.665Z,95.00
2019-01-19T02:16:45.242Z,95.00
2019-01-19T02:19:31.789Z,95.00
2019-01-19T02:22:21.617Z,95.10
2019-01-19T02:25:11.199Z,95.20
2019-01-19T02:28:11.323Z,95.40
2019-01-19T02:31:05.699Z,95.40
2019-01-19T02:33:45.442Z,95.70
2019-01-19T02:36:17.194Z,95.80
2019-01-19T02:39:13.052Z,95.90
2019-01-19T02:41:56.228Z,95.80
2019-01-19T02:44:30.311Z,95.80
2019-01-19T02:47:21.299Z,95.90
2019-01-19T02:50:19.194Z,95.80
2019-01-19T02:53:19.444Z,95.70
2019-01-19T02:56:00.047Z,95.80
2019-01-19T02:58:43.355Z,95.90
2019-01-19T03:01:31.193Z,96.10
2019-01-19T03:04:08.619Z,96.10
2019-01-19T03:06:40.114Z,96.10
2019-01-19T03:09:17.464Z,96.10
2019-01-19T03:11:48.932Z,96.20
2019-01-19T03:14:39.868Z,96.30
2019-01-19T03:17:26.016Z,96.20
2019-01-19T03:19:57.506Z,96.20
2019-01-19T03:22:31.871Z,96.30
2019-01-19T03:25:12.183Z,96.40
2019-01-19T03:28:07.919Z,96.80
2019-01-19T03:30:56.161Z,96.40
2019-01-19T03:33:45.231Z,96.30
2019-01-19T03:36:28.555Z,96.40
2019-01-19T03:39:00.556Z,96.70
2019-01-19T03:41:38.475Z,96.60
2019-01-19T03:44:18.968Z,96.70
2019-01-19T03:47:15.871Z,96.60
2019-01-19T03:49:58.972Z,96.40
2019-01-19T03:52:42.711Z,96.40
2019-01-19T03:55:22.917Z,96.40
2019-01-19T03:58:10.667Z,96.20
2019-01-19T04:00:57.102Z,96.30
2019-01-19T04:03:31.154Z,96.60
2019-01-19T04:06:20.902Z,96.70
2019-01-19T04:09:18.834Z,96.70
2019-01-19T04:11:55.729Z,96.50
2019-01-19T04:14:46.586Z,96.40
2019-01-19T04:17:46.602Z,96.40
2019-01-19T04:20:30.223Z,96.40
2019-01-19T04:22:59.789Z,96.40
2019-01-19T04:25:31.528Z,96.20
2019-01-19T04:28:01.396Z,96.30
2019-01-19T04:30:29.604Z,96.40
2019-01-19T04:32:57.850Z,96.40
2019-01-19T04:35:26.063Z,96.60
2019-01-19T04:37:54.290Z,96.50
2019-01-19T04:40:22.536Z,96.40
2019-01-19T04:42:50.927Z,96.30
2019-01-19T04:45:19.137Z,96.30
2019-01-19T04:47:47.358Z,96.40
2019-01-19T04:50:15.738Z,96.20
2019-01-19T04:52:43.958Z,96.30
2019-01-19T04:55:12.282Z,95.90
2019-01-19T04:57:40.511Z,95.90
2019-01-19T05:00:17.875Z,95.90
2019-01-19T05:02:46.308Z,95.90
2019-01-19T05:05:14.543Z,95.80
2019-01-19T05:07:42.789Z,95.70
2019-01-19T05:10:11.997Z,95.80
2019-01-19T05:12:40.259Z,95.80
2019-01-19T05:15:13.709Z,95.70
2019-01-19T05:17:42.164Z,95.50
2019-01-19T05:20:12.411Z,95.40
2019-01-19T05:22:40.648Z,95.30
2019-01-19T05:25:10.883Z,95.20
2019-01-19T05:27:39.114Z,95.20
2019-01-19T05:30:13.114Z,94.80
2019-01-19T05:32:41.532Z,94.70
2019-01-19T05:35:09.763Z,94.80
2019-01-19T05:37:37.991Z,94.80
2019-01-19T05:40:09.588Z,94.70
2019-01-19T05:42:37.785Z,94.50
2019-01-19T05:45:08.731Z,94.50
2019-01-19T05:47:36.944Z,94.30
2019-01-19T05:50:16.282Z,94.10
2019-01-19T05:52:44.492Z,94.00
2019-01-19T05:55:12.712Z,94.00
2019-01-19T05:57:40.916Z,94.00
2019-01-19T06:00:15.203Z,94.10
2019-01-19T06:02:43.490Z,94.10
2019-01-19T06:05:11.707Z,94.10
2019-01-19T06:07:41.577Z,94.00
2019-01-19T06:10:13.070Z,94.00
2019-01-19T06:12:41.334Z,94.10
2019-01-19T06:15:12.761Z,93.90
2019-01-19T06:17:40.960Z,93.70
2019-01-19T06:20:14.695Z,93.70
2019-01-19T06:22:42.903Z,93.80
2019-01-19T06:25:15.334Z,93.90
2019-01-19T06:27:43.596Z,93.50
2019-01-19T06:30:17.465Z,93.80
2019-01-19T06:32:45.747Z,93.90
2019-01-19T06:35:13.961Z,93.90
2019-01-19T06:37:42.199Z,94.00
2019-01-19T06:40:15.246Z,94.00
2019-01-19T06:42:43.558Z,94.00
2019-01-19T06:45:15.099Z,94.00
2019-01-19T06:47:43.399Z,93.90
2019-01-19T06:50:14.066Z,93.90
2019-01-19T06:52:42.293Z,93.90
2019-01-19T06:55:13.149Z,93.90
2019-01-19T06:57:41.365Z,93.90
2019-01-19T07:00:14.852Z,93.90
2019-01-19T07:02:43.226Z,94.00
2019-01-19T07:05:11.739Z,94.20
2019-01-19T07:07:39.944Z,94.10
2019-01-19T07:10:11.610Z,94.30
2019-01-19T07:12:39.870Z,94.30
2019-01-19T07:15:10.258Z,94.40
2019-01-19T07:17:38.850Z,94.30
2019-01-19T07:20:10.326Z,94.30
2019-01-19T07:22:38.545Z,94.60
2019-01-19T07:25:06.799Z,94.70
2019-01-19T07:27:35.007Z,94.70
2019-01-19T07:30:03.222Z,94.80
2019-01-19T07:32:31.453Z,94.60
2019-01-19T07:34:59.662Z,94.30
2019-01-19T07:37:27.887Z,94.10
2019-01-19T07:39:56.148Z,93.90
2019-01-19T07:42:24.406Z,93.30
2019-01-19T07:44:52.636Z,92.40
2019-01-19T07:47:21.258Z,91.90
2019-01-19T07:49:49.456Z,90.40
2019-01-19T07:52:17.685Z,88.90
2019-01-19T07:54:45.910Z,86.40
2019-01-19T07:57:14.110Z,85.80
2019-01-19T07:59:42.329Z,83.60
2019-01-19T08:02:10.575Z,81.80
2019-01-19T08:04:38.799Z,79.20
2019-01-19T08:07:07.039Z,80.60
2019-01-19T08:09:35.283Z,79.60
2019-01-19T08:12:03.975Z,81.20
2019-01-19T08:14:32.190Z,81.80
2019-01-19T08:17:00.423Z,81.50
2019-01-19T08:19:29.394Z,82.60
2019-01-19T08:21:57.602Z,84.30
2019-01-19T08:24:25.851Z,86.00
2019-01-19T08:26:55.505Z,87.60
2019-01-19T08:29:23.715Z,88.20
2019-01-19T08:31:51.961Z,88.20
2019-01-19T08:34:20.176Z,88.10
2019-01-19T08:36:48.383Z,87.30
2019-01-19T08:39:16.782Z,85.70
2019-01-19T08:41:45.018Z,80.80
2019-01-19T08:44:13.255Z,78.10
2019-01-19T08:46:41.627Z,74.40
2019-01-19T08:49:09.832Z,71.70
2019-01-19T08:51:38.065Z,70.60
2019-01-19T08:54:06.328Z,67.70
2019-01-19T08:56:34.551Z,64.90
2019-01-19T08:59:02.759Z,61.40
2019-01-19T09:01:31.070Z,60.40
2019-01-19T09:03:59.283Z,61.20
2019-01-19T09:06:27.511Z,61.70
2019-01-19T09:08:55.758Z,59.80
2019-01-19T09:11:24.000Z,59.50
2019-01-19T09:13:52.207Z,58.90
2019-01-19T09:16:20.439Z,59.00
2019-01-19T09:18:48.661Z,57.90
2019-01-19T09:21:16.978Z,57.90
2019-01-19T09:23:46.847Z,59.60
2019-01-19T09:26:15.056Z,59.30
2019-01-19T09:28:43.252Z,59.10
2019-01-19T09:31:11.493Z,60.50
2019-01-19T09:33:39.731Z,60.40
2019-01-19T09:36:07.939Z,58.20
2019-01-19T09:38:36.150Z,57.40
2019-01-19T09:41:04.562Z,56.20
2019-01-19T09:43:32.748Z,54.60
2019-01-19T09:46:00.967Z,54.10
2019-01-19T09:48:29.162Z,50.00
2019-01-19T09:50:57.398Z,51.00
2019-01-19T09:53:25.587Z,52.10
2019-01-19T09:55:53.802Z,54.40
2019-01-19T09:58:22.020Z,56.00
2019-01-19T10:00:50.226Z,56.30
2019-01-19T10:03:18.426Z,57.80
2019-01-19T10:05:46.628Z,57.60
2019-01-19T10:08:14.838Z,58.20
2019-01-19T10:10:44.062Z,58.60
2019-01-19T10:13:18.183Z,57.70
2019-01-19T10:15:46.379Z,57.10
2019-01-19T10:18:14.582Z,56.90
2019-01-19T10:20:44.412Z,55.90
2019-01-19T10:23:12.630Z,55.50
2019-01-19T10:25:40.830Z,55.60
2019-01-19T10:28:09.029Z,56.60
2019-01-19T10:30:37.265Z,54.90
2019-01-19T10:33:05.518Z,52.50
2019-01-19T10:35:33.823Z,52.10
2019-01-19T10:38:02.083Z,56.40
2019-01-19T10:40:30.278Z,56.00
2019-01-19T10:42:58.486Z,56.10
2019-01-19T10:45:28.343Z,58.40
2019-01-19T10:47:56.546Z,55.60
2019-01-19T10:50:24.773Z,55.00
2019-01-19T10:52:52.993Z,52.40
2019-01-19T10:55:22.480Z,49.70
2019-01-19T10:57:50.696Z,48.60
2019-01-19T11:00:30.702Z,47.10
2019-01-19T11:02:59.534Z,46.90
2019-01-19T11:05:28.279Z,49.10
2019-01-19T11:08:03.196Z,48.60
2019-01-19T11:10:29.054Z,48.70
2019-01-19T11:12:57.319Z,50.00
2019-01-19T11:15:25.528Z,51.10
2019-01-19T11:17:53.752Z,50.90
2019-01-19T11:20:25.666Z,48.50
2019-01-19T11:22:54.343Z,47.20
2019-01-19T11:25:22.570Z,47.30
2019-01-19T11:27:50.809Z,45.90
2019-01-19T11:30:24.354Z,48.00
2019-01-19T11:32:52.592Z,46.30
2019-01-19T11:35:20.832Z,49.10
2019-01-19T11:37:49.034Z,48.20
2019-01-19T11:40:22.794Z,50.60
2019-01-19T11:42:51.004Z,51.70
2019-01-19T11:45:21.007Z,51.80
2019-01-19T11:47:49.211Z,52.60
2019-01-19T11:50:17.496Z,53.80
2019-01-19T11:52:45.768Z,53.30
2019-01-19T11:55:19.290Z,54.00
2019-01-19T11:57:49.334Z,53.80
2019-01-19T12:00:26.154Z,53.00
2019-01-19T12:02:54.359Z,52.40
2019-01-19T12:05:22.600Z,51.30
2019-01-19T12:07:51.583Z,51.00
2019-01-19T12:10:22.490Z,51.00
2019-01-19T12:12:50.732Z,51.30
2019-01-19T12:15:18.929Z,51.10
2019-01-19T12:17:47.135Z,49.50
2019-01-19T12:20:29.850Z,47.80
2019-01-19T12:22:58.046Z,49.90
2019-01-19T12:25:26.315Z,49.70
2019-01-19T12:27:54.496Z,46.50
2019-01-19T12:30:30.439Z,45.40
2019-01-19T12:32:58.640Z,47.30
2019-01-19T12:35:26.994Z,46.60
2019-01-19T12:37:55.735Z,46.90
2019-01-19T12:40:26.513Z,46.30
2019-01-19T12:42:57.273Z,45.80
2019-01-19T12:45:28.730Z,46.00
2019-01-19T12:47:56.951Z,47.40
2019-01-19T12:50:26.902Z,47.50
2019-01-19T12:52:55.124Z,47.50
2019-01-19T12:55:23.330Z,47.60
2019-01-19T12:57:51.571Z,47.10
2019-01-19T13:00:22.294Z,44.20
2019-01-19T13:02:50.526Z,46.10
2019-01-19T13:05:31.290Z,46.70
2019-01-19T13:07:59.755Z,47.40
2019-01-19T13:10:39.983Z,48.40
2019-01-19T13:13:08.463Z,49.70
2019-01-19T13:15:42.470Z,51.10
2019-01-19T13:18:16.658Z,51.60
2019-01-19T13:21:15.676Z,50.90
2019-01-19T13:24:15.846Z,48.50
2019-01-19T13:26:53.430Z,47.80
2019-01-19T13:29:47.738Z,46.50
2019-01-19T13:32:31.529Z,46.20
2019-01-19T13:35:25.911Z,46.10
2019-01-19T13:38:12.160Z,45.40
2019-01-19T13:40:55.482Z,45.20
2019-01-19T13:43:41.866Z,44.90
2019-01-19T13:46:31.282Z,45.20
2019-01-19T13:49:34.603Z,43.80
2019-01-19T13:52:06.071Z,46.30
2019-01-19T13:54:48.817Z,47.80
2019-01-19T13:57:20.336Z,48.70
2019-01-19T14:00:01.035Z,47.90
2019-01-19T14:02:47.489Z,45.80
2019-01-19T14:05:37.391Z,43.50
2019-01-19T14:08:20.676Z,43.60
2019-01-19T14:11:03.797Z,43.80
2019-01-19T14:13:51.554Z,43.30
2019-01-19T14:16:25.695Z,44.00
2019-01-19T14:19:28.559Z,46.40
2019-01-19T14:22:15.022Z,50.40
2019-01-19T14:24:49.186Z,52.80
2019-01-19T14:27:35.801Z,52.80
2019-01-19T14:30:25.310Z,54.40
2019-01-19T14:33:05.564Z,53.50
2019-01-19T14:35:42.880Z,55.20
2019-01-19T14:38:23.079Z,54.40
2019-01-19T14:41:06.513Z,55.00
2019-01-19T14:43:54.825Z,55.20
2019-01-19T14:46:43.122Z,55.00
2019-01-19T14:49:23.414Z,55.30
2019-01-19T14:51:54.907Z,55.20
2019-01-19T14:54:35.551Z,56.20
2019-01-19T14:57:15.870Z,55.10
2019-01-19T14:59:59.341Z,56.50
2019-01-19T15:02:42.595Z,57.20
2019-01-19T15:05:22.374Z,58.10
2019-01-19T15:07:59.403Z,58.10
2019-01-19T15:10:42.682Z,58.50
2019-01-19T15:13:17.107Z,56.70
2019-01-19T15:15:50.081Z,54.40
2019-01-19T15:18:34.479Z,55.30
2019-01-19T15:21:17.975Z,57.00
2019-01-19T15:23:58.292Z,59.00
2019-01-19T15:26:38.850Z,60.10
2019-01-19T15:29:27.009Z,61.20
2019-01-19T15:32:07.194Z,61.40
2019-01-19T15:34:59.818Z,61.60
2019-01-19T15:37:46.516Z,63.90
2019-01-19T15:40:32.912Z,65.60
2019-01-19T15:43:04.367Z,66.30
2019-01-19T15:45:44.707Z,66.40
2019-01-19T15:48:18.743Z,66.80
2019-01-19T15:51:18.824Z,66.30
2019-01-19T15:54:10.758Z,67.60
2019-01-19T15:56:54.125Z,68.10
2019-01-19T15:59:42.144Z,69.10
2019-01-19T16:02:47.282Z,69.20
2019-01-19T16:05:18.749Z,70.70
2019-01-19T16:07:53.009Z,70.20
2019-01-19T16:10:45.334Z,70.50
2019-01-19T16:13:16.835Z,71.20
2019-01-19T16:16:09.294Z,71.90
2019-01-19T16:18:46.871Z,72.50
2019-01-19T16:21:35.126Z,73.80
2019-01-19T16:24:09.609Z,73.90
2019-01-19T16:26:52.929Z,74.60
2019-01-19T16:29:27.139Z,75.60
2019-01-19T16:32:08.034Z,76.00
2019-01-19T16:34:51.777Z,76.50
2019-01-19T16:37:49.016Z,77.00
2019-01-19T16:40:20.495Z,77.40
2019-01-19T16:43:16.011Z,78.20
2019-01-19T16:46:04.977Z,78.80
2019-01-19T16:48:51.595Z,79.80
2019-01-19T16:51:41.079Z,79.50
2019-01-19T16:54:18.136Z,79.60
2019-01-19T16:57:04.475Z,80.00
2019-01-19T16:59:51.629Z,80.70
2019-01-19T17:02:26.214Z,80.70
2019-01-19T17:05:21.938Z,80.40
2019-01-19T17:08:02.358Z,80.40
2019-01-19T17:10:48.702Z,80.40
2019-01-19T17:13:26.094Z,81.10
2019-01-19T17:16:00.230Z,81.80
2019-01-19T17:18:34.466Z,82.00
2019-01-19T17:21:17.714Z,83.20
2019-01-19T17:24:00.923Z,83.80
2019-01-19T17:26:56.460Z,84.80
2019-01-19T17:29:30.606Z,84.60
2019-01-19T17:32:19.995Z,85.40
2019-01-19T17:34:59.803Z,86.70
2019-01-19T17:37:34.163Z,88.50
2019-01-19T17:40:26.738Z,88.20
2019-01-19T17:43:13.578Z,87.80
2019-01-19T17:45:54.070Z,87.90
2019-01-19T17:48:34.719Z,88.50
2019-01-19T17:51:15.099Z,89.30
2019-01-19T17:53:55.267Z,88.00
2019-01-19T17:56:38.523Z,89.40
2019-01-19T17:59:12.627Z,90.00
2019-01-19T18:02:02.664Z,90.20
2019-01-19T18:04:40.198Z,90.20
2019-01-19T18:07:28.230Z,91.10
2019-01-19T18:10:02.559Z,91.30
2019-01-19T18:12:36.715Z,91.20
2019-01-19T18:15:17.061Z,91.30
2019-01-19T18:17:52.351Z,91.50
2019-01-19T18:20:41.904Z,91.20
2019-01-19T18:23:26.715Z,91.50
2019-01-19T18:26:17.215Z,91.70
2019-01-19T18:29:04.034Z,91.90
2019-01-19T18:31:56.378Z,91.70
2019-01-19T18:34:30.353Z,92.10
2019-01-19T18:37:10.870Z,91.80
2019-01-19T18:39:45.170Z,92.10
2019-01-19T18:42:16.636Z,93.00
2019-01-19T18:45:08.998Z,92.60
2019-01-19T18:47:43.262Z,92.90
2019-01-19T18:50:43.467Z,93.20
2019-01-19T18:53:14.984Z,93.40
2019-01-19T18:56:06.217Z,93.20
2019-01-19T18:58:58.775Z,93.50
2019-01-19T19:01:36.138Z,93.40
2019-01-19T19:04:39.184Z,93.50
2019-01-19T19:07:25.607Z,93.40
2019-01-19T19:10:15.156Z,93.10
2019-01-19T19:13:03.362Z,93.20
2019-01-19T19:15:39.923Z,93.10
2019-01-19T19:18:22.962Z,93.10
2019-01-19T19:21:03.312Z,93.30
2019-01-19T19:23:34.794Z,93.30
2019-01-19T19:26:09.181Z,93.30
2019-01-19T19:28:52.648Z,93.30
2019-01-19T19:31:24.106Z,93.50
2019-01-19T19:34:12.496Z,93.40
2019-01-19T19:36:52.932Z,93.50
2019-01-19T19:39:45.119Z,94.10
2019-01-19T19:42:22.459Z,94.20
2019-01-19T19:45:02.611Z,94.20
2019-01-19T19:47:53.264Z,94.30
2019-01-19T19:50:44.337Z,94.50
2019-01-19T19:53:12.539Z,94.40
2019-01-19T19:55:39.870Z,94.50
2019-01-19T19:58:08.098Z,94.50
2019-01-19T20:00:36.316Z,94.50
2019-01-19T20:03:04.604Z,94.70
2019-01-19T20:05:32.807Z,94.80
2019-01-19T20:08:01.009Z,95.00
2019-01-19T20:10:31.126Z,95.10
2019-01-19T20:12:59.364Z,95.20
2019-01-19T20:15:27.571Z,95.20
2019-01-19T20:17:55.798Z,95.30
2019-01-19T20:20:24.059Z,95.40
2019-01-19T20:22:52.258Z,95.60
2019-01-19T20:25:20.506Z,95.70
2019-01-19T20:27:48.715Z,95.60
2019-01-19T20:30:17.402Z,95.60
2019-01-19T20:32:45.631Z,95.70
2019-01-19T20:35:13.837Z,95.80
2019-01-19T20:37:42.064Z,95.70
2019-01-19T20:40:10.650Z,95.60
2019-01-19T20:42:38.870Z,95.60
2019-01-19T20:45:12.043Z,95.40
2019-01-19T20:47:40.286Z,95.20
2019-01-19T20:50:10.758Z,95.10
2019-01-19T20:52:39.006Z,95.10
2019-01-19T20:55:09.944Z,94.80
2019-01-19T20:57:39.087Z,94.70
2019-01-19T21:00:14.074Z,94.70
2019-01-19T21:02:42.284Z,94.80
2019-01-19T21:05:10.516Z,94.80
2019-01-19T21:07:38.718Z,94.80
2019-01-19T21:10:07.326Z,94.90
2019-01-19T21:12:35.551Z,94.80
2019-01-19T21:15:05.558Z,94.90
2019-01-19T21:17:33.779Z,95.00
2019-01-19T21:20:01.989Z,95.20
2019-01-19T21:22:30.209Z,95.10
2019-01-19T21:24:58.422Z,95.10
2019-01-19T21:27:26.644Z,95.20
2019-01-19T21:29:54.884Z,95.10
2019-01-19T21:32:23.142Z,95.00
2019-01-19T21:34:51.346Z,94.90
2019-01-19T21:37:19.562Z,94.80
2019-01-19T21:39:47.852Z,94.80
2019-01-19T21:42:16.185Z,94.80
2019-01-19T21:44:44.420Z,94.80
2019-01-19T21:47:12.620Z,94.90
2019-01-19T21:49:40.858Z,94.80
2019-01-19T21:52:09.062Z,94.90
2019-01-19T21:54:37.338Z,94.90
2019-01-19T21:57:05.551Z,94.80
2019-01-19T21:59:33.755Z,94.70
2019-01-19T22:02:02.010Z,94.70
2019-01-19T22:04:30.231Z,94.60
2019-01-19T22:06:58.456Z,94.70
2019-01-19T22:09:26.670Z,94.50
2019-01-19T22:11:54.874Z,94.40
2019-01-19T22:14:23.102Z,94.40
2019-01-19T22:16:51.311Z,94.50
2019-01-19T22:19:19.715Z,94.40
2019-01-19T22:21:48.002Z,94.20
2019-01-19T22:24:16.206Z,94.20
2019-01-19T22:26:46.070Z,94.20
2019-01-19T22:29:14.309Z,94.30
2019-01-19T22:31:42.515Z,94.30
2019-01-19T22:34:10.714Z,94.10
2019-01-19T22:36:38.946Z,94.20
2019-01-19T22:39:07.322Z,94.30
2019-01-19T22:41:35.559Z,94.40
2019-01-19T22:44:04.086Z,94.50
2019-01-19T22:46:32.285Z,94.50
2019-01-19T22:49:00.579Z,94.40
2019-01-19T22:51:28.795Z,94.20
2019-01-19T22:53:57.002Z,94.30
2019-01-19T22:56:25.223Z,94.40
2019-01-19T22:58:53.455Z,94.70
2019-01-19T23:01:30.738Z,94.70
2019-01-19T23:03:59.031Z,95.00
2019-01-19T23:06:27.261Z,94.70
2019-01-19T23:08:55.457Z,94.80
2019-01-19T23:11:23.698Z,94.80
2019-01-19T23:13:51.919Z,94.90
2019-01-19T23:16:20.173Z,94.90
2019-01-19T23:18:48.412Z,95.40
2019-01-19T23:21:16.617Z,95.10
2019-01-19T23:23:44.838Z,95.10
2019-01-19T23:26:13.151Z,95.20
2019-01-19T23:28:41.359Z,95.40
2019-01-19T23:31:09.563Z,95.40
2019-01-19T23:33:37.798Z,95.60
2019-01-19T23:36:06.006Z,95.50
2019-01-19T23:38:34.225Z,95.60
2019-01-19T23:41:08.927Z,95.70
2019-01-19T23:43:32.650Z,95.80
2019-01-19T23:46:00.859Z,95.60
2019-01-19T23:48:29.104Z,95.60
2019-01-19T23:50:57.308Z,95.80
2019-01-19T23:53:25.514Z,95.70
2019-01-19T23:55:53.748Z,95.70
2019-01-19T23:58:21.967Z,95.70
